sensor_id;sensor_type;location;lat;lon;timestamp;P1;durP1;ratioP1;P2;durP2;ratioP2
76745;SDS011;65671;49.976;20.038;2023-12-29T00:01:56;17.88;;;10.05;;
76745;SDS011;65671;49.976;20.038;2023-12-29T00:04:21;16.67;;;9.65;;
76745;SDS011;65671;49.976;20.038;2023-12-29T00:06:47;21.10;;;10.93;;
76745;SDS011;65671;49.976;20.038;2023-12-29T00:09:14;20.20;;;9.63;;
76745;SDS011;65671;49.976;20.038;2023-12-29T00:11:48;16.52;;;8.63;;
76745;SDS011;65671;49.976;20.038;2023-12-29T00:14:14;17.50;;;9.23;;
76745;SDS011;65671;49.976;20.038;2023-12-29T00:16:40;17.70;;;9.63;;
76745;SDS011;65671;49.976;20.038;2023-12-29T00:19:06;18.15;;;9.25;;
76745;SDS011;65671;49.976;20.038;2023-12-29T00:21:31;19.20;;;10.20;;
76745;SDS011;65671;49.976;20.038;2023-12-29T00:23:57;14.55;;;8.65;;
76745;SDS011;65671;49.976;20.038;2023-12-29T00:26:23;13.15;;;8.02;;
76745;SDS011;65671;49.976;20.038;2023-12-29T00:28:48;13.73;;;7.80;;
76745;SDS011;65671;49.976;20.038;2023-12-29T00:31:16;13.38;;;7.93;;
76745;SDS011;65671;49.976;20.038;2023-12-29T00:33:42;13.65;;;7.13;;
76745;SDS011;65671;49.976;20.038;2023-12-29T00:36:14;12.80;;;7.07;;
76745;SDS011;65671;49.976;20.038;2023-12-29T00:38:41;11.82;;;7.50;;
76745;SDS011;65671;49.976;20.038;2023-12-29T00:41:06;12.63;;;7.78;;
76745;SDS011;65671;49.976;20.038;2023-12-29T00:43:35;19.70;;;11.30;;
76745;SDS011;65671;49.976;20.038;2023-12-29T00:46:01;13.90;;;7.20;;
76745;SDS011;65671;49.976;20.038;2023-12-29T00:48:30;13.43;;;6.63;;
76745;SDS011;65671;49.976;20.038;2023-12-29T00:50:56;9.40;;;5.93;;
76745;SDS011;65671;49.976;20.038;2023-12-29T00:53:21;10.55;;;5.55;;
76745;SDS011;65671;49.976;20.038;2023-12-29T00:55:47;12.70;;;6.85;;
76745;SDS011;65671;49.976;20.038;2023-12-29T00:58:12;14.90;;;6.68;;
76745;SDS011;65671;49.976;20.038;2023-12-29T01:00:38;12.25;;;7.07;;
76745;SDS011;65671;49.976;20.038;2023-12-29T01:03:03;10.57;;;7.10;;
76745;SDS011;65671;49.976;20.038;2023-12-29T01:05:29;11.65;;;6.50;;
76745;SDS011;65671;49.976;20.038;2023-12-29T01:07:55;12.30;;;6.28;;
76745;SDS011;65671;49.976;20.038;2023-12-29T01:10:20;8.82;;;6.57;;
76745;SDS011;65671;49.976;20.038;2023-12-29T01:12:46;9.30;;;6.00;;
76745;SDS011;65671;49.976;20.038;2023-12-29T01:15:12;15.40;;;6.25;;
76745;SDS011;65671;49.976;20.038;2023-12-29T01:17:38;10.02;;;5.47;;
76745;SDS011;65671;49.976;20.038;2023-12-29T01:20:03;9.35;;;5.03;;
76745;SDS011;65671;49.976;20.038;2023-12-29T01:22:31;8.65;;;4.57;;
76745;SDS011;65671;49.976;20.038;2023-12-29T01:24:58;9.20;;;4.47;;
76745;SDS011;65671;49.976;20.038;2023-12-29T01:27:25;9.90;;;4.45;;
76745;SDS011;65671;49.976;20.038;2023-12-29T01:29:50;7.93;;;4.38;;
76745;SDS011;65671;49.976;20.038;2023-12-29T01:32:20;8.35;;;4.85;;
76745;SDS011;65671;49.976;20.038;2023-12-29T01:34:51;6.05;;;4.18;;
76745;SDS011;65671;49.976;20.038;2023-12-29T01:37:20;7.03;;;4.15;;
76745;SDS011;65671;49.976;20.038;2023-12-29T01:39:45;7.20;;;3.60;;
76745;SDS011;65671;49.976;20.038;2023-12-29T01:42:11;7.32;;;3.70;;
76745;SDS011;65671;49.976;20.038;2023-12-29T01:44:37;7.50;;;4.25;;
76745;SDS011;65671;49.976;20.038;2023-12-29T01:47:02;10.57;;;3.75;;
76745;SDS011;65671;49.976;20.038;2023-12-29T01:49:38;6.35;;;3.90;;
76745;SDS011;65671;49.976;20.038;2023-12-29T01:52:04;4.60;;;3.17;;
76745;SDS011;65671;49.976;20.038;2023-12-29T01:54:34;6.10;;;3.50;;
76745;SDS011;65671;49.976;20.038;2023-12-29T01:57:05;5.75;;;3.33;;
76745;SDS011;65671;49.976;20.038;2023-12-29T01:59:34;6.90;;;3.30;;
76745;SDS011;65671;49.976;20.038;2023-12-29T02:02:00;5.15;;;3.17;;
76745;SDS011;65671;49.976;20.038;2023-12-29T02:04:27;6.10;;;3.30;;
76745;SDS011;65671;49.976;20.038;2023-12-29T02:06:56;4.60;;;3.08;;
76745;SDS011;65671;49.976;20.038;2023-12-29T02:09:22;23.58;;;11.23;;
76745;SDS011;65671;49.976;20.038;2023-12-29T02:11:48;18.10;;;8.55;;
76745;SDS011;65671;49.976;20.038;2023-12-29T02:14:17;7.22;;;4.15;;
76745;SDS011;65671;49.976;20.038;2023-12-29T02:19:39;7.82;;;4.43;;
76745;SDS011;65671;49.976;20.038;2023-12-29T02:22:09;6.68;;;3.63;;
76745;SDS011;65671;49.976;20.038;2023-12-29T02:24:38;6.57;;;3.78;;
76745;SDS011;65671;49.976;20.038;2023-12-29T02:30:24;7.03;;;4.10;;
76745;SDS011;65671;49.976;20.038;2023-12-29T02:32:55;8.10;;;5.15;;
76745;SDS011;65671;49.976;20.038;2023-12-29T02:35:25;8.45;;;3.80;;
76745;SDS011;65671;49.976;20.038;2023-12-29T02:37:53;6.18;;;3.75;;
76745;SDS011;65671;49.976;20.038;2023-12-29T02:40:20;4.75;;;3.55;;
76745;SDS011;65671;49.976;20.038;2023-12-29T02:42:46;6.43;;;3.65;;
76745;SDS011;65671;49.976;20.038;2023-12-29T02:45:12;6.85;;;3.30;;
76745;SDS011;65671;49.976;20.038;2023-12-29T02:47:39;4.60;;;2.83;;
76745;SDS011;65671;49.976;20.038;2023-12-29T02:50:04;4.35;;;3.08;;
76745;SDS011;65671;49.976;20.038;2023-12-29T02:52:30;5.95;;;3.03;;
76745;SDS011;65671;49.976;20.038;2023-12-29T02:54:55;6.20;;;3.00;;
76745;SDS011;65671;49.976;20.038;2023-12-29T02:57:21;3.85;;;2.90;;
76745;SDS011;65671;49.976;20.038;2023-12-29T02:59:46;4.60;;;3.05;;
76745;SDS011;65671;49.976;20.038;2023-12-29T03:02:12;3.65;;;2.60;;
76745;SDS011;65671;49.976;20.038;2023-12-29T03:04:37;4.07;;;2.55;;
76745;SDS011;65671;49.976;20.038;2023-12-29T03:09:38;4.20;;;2.70;;
76745;SDS011;65671;49.976;20.038;2023-12-29T03:12:03;3.70;;;2.40;;
76745;SDS011;65671;49.976;20.038;2023-12-29T03:14:32;3.80;;;2.47;;
76745;SDS011;65671;49.976;20.038;2023-12-29T03:16:58;6.32;;;2.70;;
76745;SDS011;65671;49.976;20.038;2023-12-29T03:19:23;5.20;;;3.10;;
76745;SDS011;65671;49.976;20.038;2023-12-29T03:21:49;2.95;;;2.30;;
76745;SDS011;65671;49.976;20.038;2023-12-29T03:24:15;4.47;;;2.70;;
76745;SDS011;65671;49.976;20.038;2023-12-29T03:26:40;4.68;;;2.92;;
76745;SDS011;65671;49.976;20.038;2023-12-29T03:29:06;4.32;;;2.75;;
76745;SDS011;65671;49.976;20.038;2023-12-29T03:31:31;4.03;;;2.40;;
76745;SDS011;65671;49.976;20.038;2023-12-29T03:33:57;5.13;;;2.85;;
76745;SDS011;65671;49.976;20.038;2023-12-29T03:36:23;4.72;;;2.53;;
76745;SDS011;65671;49.976;20.038;2023-12-29T03:38:48;3.75;;;2.60;;
76745;SDS011;65671;49.976;20.038;2023-12-29T03:41:14;3.67;;;2.53;;
76745;SDS011;65671;49.976;20.038;2023-12-29T03:43:39;4.57;;;2.58;;
76745;SDS011;65671;49.976;20.038;2023-12-29T03:46:14;5.10;;;2.90;;
76745;SDS011;65671;49.976;20.038;2023-12-29T03:48:43;4.50;;;2.53;;
76745;SDS011;65671;49.976;20.038;2023-12-29T03:51:09;3.83;;;2.42;;
76745;SDS011;65671;49.976;20.038;2023-12-29T03:53:34;3.80;;;2.50;;
76745;SDS011;65671;49.976;20.038;2023-12-29T03:56:03;4.97;;;2.60;;
76745;SDS011;65671;49.976;20.038;2023-12-29T03:58:30;4.05;;;2.40;;
76745;SDS011;65671;49.976;20.038;2023-12-29T04:00:55;4.25;;;2.55;;
76745;SDS011;65671;49.976;20.038;2023-12-29T04:03:21;4.00;;;2.35;;
76745;SDS011;65671;49.976;20.038;2023-12-29T04:05:46;3.70;;;2.40;;
76745;SDS011;65671;49.976;20.038;2023-12-29T04:08:12;4.38;;;2.63;;
76745;SDS011;65671;49.976;20.038;2023-12-29T04:10:38;6.65;;;2.67;;
76745;SDS011;65671;49.976;20.038;2023-12-29T04:13:03;4.75;;;2.80;;
76745;SDS011;65671;49.976;20.038;2023-12-29T04:15:30;3.33;;;2.55;;
76745;SDS011;65671;49.976;20.038;2023-12-29T04:17:55;3.70;;;2.50;;
76745;SDS011;65671;49.976;20.038;2023-12-29T04:20:21;5.88;;;2.80;;
76745;SDS011;65671;49.976;20.038;2023-12-29T04:22:46;4.63;;;2.72;;
76745;SDS011;65671;49.976;20.038;2023-12-29T04:25:12;4.35;;;2.42;;
76745;SDS011;65671;49.976;20.038;2023-12-29T04:27:38;3.42;;;2.40;;
76745;SDS011;65671;49.976;20.038;2023-12-29T04:30:08;7.45;;;2.78;;
76745;SDS011;65671;49.976;20.038;2023-12-29T04:32:33;5.25;;;2.78;;
76745;SDS011;65671;49.976;20.038;2023-12-29T04:35:02;4.25;;;2.35;;
76745;SDS011;65671;49.976;20.038;2023-12-29T04:37:27;4.53;;;2.38;;
76745;SDS011;65671;49.976;20.038;2023-12-29T04:39:53;5.53;;;2.30;;
76745;SDS011;65671;49.976;20.038;2023-12-29T04:42:18;3.60;;;2.58;;
76745;SDS011;65671;49.976;20.038;2023-12-29T04:44:44;5.28;;;2.42;;
76745;SDS011;65671;49.976;20.038;2023-12-29T04:47:09;3.80;;;2.30;;
76745;SDS011;65671;49.976;20.038;2023-12-29T04:49:35;3.83;;;2.30;;
76745;SDS011;65671;49.976;20.038;2023-12-29T04:52:00;3.80;;;2.45;;
76745;SDS011;65671;49.976;20.038;2023-12-29T04:54:26;3.95;;;2.40;;
76745;SDS011;65671;49.976;20.038;2023-12-29T04:56:52;3.55;;;2.28;;
76745;SDS011;65671;49.976;20.038;2023-12-29T04:59:17;3.75;;;2.45;;
76745;SDS011;65671;49.976;20.038;2023-12-29T05:01:43;4.18;;;2.78;;
76745;SDS011;65671;49.976;20.038;2023-12-29T05:04:08;4.13;;;2.20;;
76745;SDS011;65671;49.976;20.038;2023-12-29T05:06:33;3.88;;;2.58;;
76745;SDS011;65671;49.976;20.038;2023-12-29T05:08:59;3.22;;;2.22;;
76745;SDS011;65671;49.976;20.038;2023-12-29T05:11:24;4.50;;;2.35;;
76745;SDS011;65671;49.976;20.038;2023-12-29T05:13:50;4.30;;;2.88;;
76745;SDS011;65671;49.976;20.038;2023-12-29T05:16:15;4.38;;;2.67;;
76745;SDS011;65671;49.976;20.038;2023-12-29T05:18:41;4.72;;;2.92;;
76745;SDS011;65671;49.976;20.038;2023-12-29T05:21:13;6.07;;;3.20;;
76745;SDS011;65671;49.976;20.038;2023-12-29T05:23:43;3.95;;;2.22;;
76745;SDS011;65671;49.976;20.038;2023-12-29T05:26:13;3.20;;;2.30;;
76745;SDS011;65671;49.976;20.038;2023-12-29T05:28:41;3.92;;;2.40;;
76745;SDS011;65671;49.976;20.038;2023-12-29T05:31:06;4.57;;;2.53;;
76745;SDS011;65671;49.976;20.038;2023-12-29T05:33:32;5.82;;;3.05;;
76745;SDS011;65671;49.976;20.038;2023-12-29T05:35:58;3.58;;;2.67;;
76745;SDS011;65671;49.976;20.038;2023-12-29T05:40:59;3.70;;;2.40;;
76745;SDS011;65671;49.976;20.038;2023-12-29T05:43:26;4.40;;;2.20;;
76745;SDS011;65671;49.976;20.038;2023-12-29T05:45:52;4.68;;;2.40;;
76745;SDS011;65671;49.976;20.038;2023-12-29T05:48:17;3.47;;;2.20;;
76745;SDS011;65671;49.976;20.038;2023-12-29T05:50:43;3.95;;;2.00;;
76745;SDS011;65671;49.976;20.038;2023-12-29T05:53:08;4.72;;;2.35;;
76745;SDS011;65671;49.976;20.038;2023-12-29T05:55:33;3.78;;;1.98;;
76745;SDS011;65671;49.976;20.038;2023-12-29T05:57:59;4.03;;;2.15;;
76745;SDS011;65671;49.976;20.038;2023-12-29T06:00:24;5.68;;;2.42;;
76745;SDS011;65671;49.976;20.038;2023-12-29T06:02:50;3.88;;;2.33;;
76745;SDS011;65671;49.976;20.038;2023-12-29T06:05:15;3.42;;;2.10;;
76745;SDS011;65671;49.976;20.038;2023-12-29T06:07:41;3.10;;;2.15;;
76745;SDS011;65671;49.976;20.038;2023-12-29T06:10:06;3.83;;;2.35;;
76745;SDS011;65671;49.976;20.038;2023-12-29T06:12:33;3.35;;;2.25;;
76745;SDS011;65671;49.976;20.038;2023-12-29T06:14:59;3.47;;;2.17;;
76745;SDS011;65671;49.976;20.038;2023-12-29T06:17:24;3.78;;;2.35;;
76745;SDS011;65671;49.976;20.038;2023-12-29T06:19:50;4.20;;;2.20;;
76745;SDS011;65671;49.976;20.038;2023-12-29T06:22:16;3.85;;;1.95;;
76745;SDS011;65671;49.976;20.038;2023-12-29T06:24:41;3.67;;;2.10;;
76745;SDS011;65671;49.976;20.038;2023-12-29T06:27:07;3.10;;;2.10;;
76745;SDS011;65671;49.976;20.038;2023-12-29T06:29:34;2.92;;;2.20;;
76745;SDS011;65671;49.976;20.038;2023-12-29T06:31:59;4.00;;;2.25;;
76745;SDS011;65671;49.976;20.038;2023-12-29T06:34:25;3.72;;;2.50;;
76745;SDS011;65671;49.976;20.038;2023-12-29T06:36:50;6.50;;;2.63;;
76745;SDS011;65671;49.976;20.038;2023-12-29T06:39:16;3.83;;;2.22;;
76745;SDS011;65671;49.976;20.038;2023-12-29T06:41:44;2.75;;;2.05;;
76745;SDS011;65671;49.976;20.038;2023-12-29T06:44:10;4.97;;;2.58;;
76745;SDS011;65671;49.976;20.038;2023-12-29T06:46:39;2.97;;;1.80;;
76745;SDS011;65671;49.976;20.038;2023-12-29T06:49:06;3.53;;;1.95;;
76745;SDS011;65671;49.976;20.038;2023-12-29T06:51:33;2.70;;;1.80;;
76745;SDS011;65671;49.976;20.038;2023-12-29T06:53:59;3.45;;;2.08;;
76745;SDS011;65671;49.976;20.038;2023-12-29T06:56:25;3.80;;;1.77;;
76745;SDS011;65671;49.976;20.038;2023-12-29T06:58:51;3.05;;;2.00;;
76745;SDS011;65671;49.976;20.038;2023-12-29T07:01:19;3.35;;;1.95;;
76745;SDS011;65671;49.976;20.038;2023-12-29T07:03:45;2.30;;;2.00;;
76745;SDS011;65671;49.976;20.038;2023-12-29T07:06:10;3.60;;;1.98;;
76745;SDS011;65671;49.976;20.038;2023-12-29T07:08:36;2.50;;;1.77;;
76745;SDS011;65671;49.976;20.038;2023-12-29T07:11:02;2.55;;;1.63;;
76745;SDS011;65671;49.976;20.038;2023-12-29T07:13:27;2.92;;;1.90;;
76745;SDS011;65671;49.976;20.038;2023-12-29T07:15:53;4.97;;;2.50;;
76745;SDS011;65671;49.976;20.038;2023-12-29T07:18:19;4.18;;;2.20;;
76745;SDS011;65671;49.976;20.038;2023-12-29T07:20:44;3.35;;;2.20;;
76745;SDS011;65671;49.976;20.038;2023-12-29T07:23:10;2.72;;;1.80;;
76745;SDS011;65671;49.976;20.038;2023-12-29T07:25:35;4.60;;;2.70;;
76745;SDS011;65671;49.976;20.038;2023-12-29T07:28:01;3.60;;;2.30;;
76745;SDS011;65671;49.976;20.038;2023-12-29T07:30:26;4.97;;;3.00;;
76745;SDS011;65671;49.976;20.038;2023-12-29T07:32:52;4.63;;;2.70;;
76745;SDS011;65671;49.976;20.038;2023-12-29T07:35:17;6.70;;;3.20;;
76745;SDS011;65671;49.976;20.038;2023-12-29T07:37:44;5.03;;;2.72;;
76745;SDS011;65671;49.976;20.038;2023-12-29T07:40:13;5.82;;;2.80;;
76745;SDS011;65671;49.976;20.038;2023-12-29T07:42:39;3.47;;;2.22;;
76745;SDS011;65671;49.976;20.038;2023-12-29T07:45:05;5.38;;;2.90;;
76745;SDS011;65671;49.976;20.038;2023-12-29T07:47:31;5.40;;;2.17;;
76745;SDS011;65671;49.976;20.038;2023-12-29T07:49:57;4.97;;;2.63;;
76745;SDS011;65671;49.976;20.038;2023-12-29T07:52:23;5.68;;;2.80;;
76745;SDS011;65671;49.976;20.038;2023-12-29T07:54:48;5.10;;;3.20;;
76745;SDS011;65671;49.976;20.038;2023-12-29T07:57:14;5.88;;;3.05;;
76745;SDS011;65671;49.976;20.038;2023-12-29T07:59:40;3.10;;;2.28;;
76745;SDS011;65671;49.976;20.038;2023-12-29T08:02:08;3.78;;;2.47;;
76745;SDS011;65671;49.976;20.038;2023-12-29T08:04:34;3.15;;;2.33;;
76745;SDS011;65671;49.976;20.038;2023-12-29T08:07:00;4.47;;;2.78;;
76745;SDS011;65671;49.976;20.038;2023-12-29T08:09:26;4.40;;;2.80;;
76745;SDS011;65671;49.976;20.038;2023-12-29T08:11:52;6.00;;;2.63;;
76745;SDS011;65671;49.976;20.038;2023-12-29T08:14:20;5.82;;;2.60;;
76745;SDS011;65671;49.976;20.038;2023-12-29T08:16:45;5.55;;;3.20;;
76745;SDS011;65671;49.976;20.038;2023-12-29T08:19:11;4.63;;;2.80;;
76745;SDS011;65671;49.976;20.038;2023-12-29T08:21:37;4.82;;;3.38;;
76745;SDS011;65671;49.976;20.038;2023-12-29T08:24:02;4.10;;;2.83;;
76745;SDS011;65671;49.976;20.038;2023-12-29T08:26:28;5.00;;;2.83;;
76745;SDS011;65671;49.976;20.038;2023-12-29T08:28:54;5.70;;;2.88;;
76745;SDS011;65671;49.976;20.038;2023-12-29T08:31:19;5.10;;;2.72;;
76745;SDS011;65671;49.976;20.038;2023-12-29T08:33:45;5.63;;;3.35;;
76745;SDS011;65671;49.976;20.038;2023-12-29T08:36:11;5.07;;;2.50;;
76745;SDS011;65671;49.976;20.038;2023-12-29T08:38:37;4.47;;;2.50;;
76745;SDS011;65671;49.976;20.038;2023-12-29T08:41:06;3.53;;;2.22;;
76745;SDS011;65671;49.976;20.038;2023-12-29T08:43:31;3.47;;;2.25;;
76745;SDS011;65671;49.976;20.038;2023-12-29T08:45:56;4.95;;;2.45;;
76745;SDS011;65671;49.976;20.038;2023-12-29T08:48:22;5.07;;;2.83;;
76745;SDS011;65671;49.976;20.038;2023-12-29T08:50:48;5.28;;;2.65;;
76745;SDS011;65671;49.976;20.038;2023-12-29T08:53:14;4.57;;;2.72;;
76745;SDS011;65671;49.976;20.038;2023-12-29T08:55:40;4.53;;;2.40;;
76745;SDS011;65671;49.976;20.038;2023-12-29T08:58:06;3.83;;;2.22;;
76745;SDS011;65671;49.976;20.038;2023-12-29T09:00:34;3.58;;;2.45;;
76745;SDS011;65671;49.976;20.038;2023-12-29T09:03:00;4.82;;;2.55;;
76745;SDS011;65671;49.976;20.038;2023-12-29T09:05:25;3.38;;;2.40;;
76745;SDS011;65671;49.976;20.038;2023-12-29T09:07:51;4.28;;;2.50;;
76745;SDS011;65671;49.976;20.038;2023-12-29T09:10:16;4.35;;;2.13;;
76745;SDS011;65671;49.976;20.038;2023-12-29T09:12:42;3.10;;;1.90;;
76745;SDS011;65671;49.976;20.038;2023-12-29T09:15:09;3.35;;;2.30;;
76745;SDS011;65671;49.976;20.038;2023-12-29T09:17:34;5.07;;;2.42;;
76745;SDS011;65671;49.976;20.038;2023-12-29T09:20:00;5.03;;;2.47;;
76745;SDS011;65671;49.976;20.038;2023-12-29T09:22:25;5.97;;;2.92;;
76745;SDS011;65671;49.976;20.038;2023-12-29T09:24:53;4.68;;;2.53;;
76745;SDS011;65671;49.976;20.038;2023-12-29T09:27:21;3.63;;;2.13;;
76745;SDS011;65671;49.976;20.038;2023-12-29T09:29:47;6.63;;;2.55;;
76745;SDS011;65671;49.976;20.038;2023-12-29T09:32:12;6.25;;;2.67;;
76745;SDS011;65671;49.976;20.038;2023-12-29T09:34:38;5.82;;;2.65;;
76745;SDS011;65671;49.976;20.038;2023-12-29T09:37:03;3.47;;;2.25;;
76745;SDS011;65671;49.976;20.038;2023-12-29T09:39:32;4.93;;;2.20;;
76745;SDS011;65671;49.976;20.038;2023-12-29T09:42:01;4.70;;;2.40;;
76745;SDS011;65671;49.976;20.038;2023-12-29T09:44:31;5.03;;;2.60;;
76745;SDS011;65671;49.976;20.038;2023-12-29T09:47:03;3.97;;;2.33;;
76745;SDS011;65671;49.976;20.038;2023-12-29T09:49:34;4.68;;;2.28;;
76745;SDS011;65671;49.976;20.038;2023-12-29T09:52:09;5.10;;;2.63;;
76745;SDS011;65671;49.976;20.038;2023-12-29T09:54:36;4.10;;;2.33;;
76745;SDS011;65671;49.976;20.038;2023-12-29T09:57:03;4.15;;;2.45;;
76745;SDS011;65671;49.976;20.038;2023-12-29T09:59:29;4.13;;;2.42;;
76745;SDS011;65671;49.976;20.038;2023-12-29T10:01:55;5.00;;;2.85;;
76745;SDS011;65671;49.976;20.038;2023-12-29T10:04:21;3.28;;;2.00;;
76745;SDS011;65671;49.976;20.038;2023-12-29T10:06:47;3.53;;;2.13;;
76745;SDS011;65671;49.976;20.038;2023-12-29T10:09:15;4.20;;;2.40;;
76745;SDS011;65671;49.976;20.038;2023-12-29T10:11:43;4.80;;;2.40;;
76745;SDS011;65671;49.976;20.038;2023-12-29T10:14:31;4.32;;;2.30;;
76745;SDS011;65671;49.976;20.038;2023-12-29T10:20:38;4.45;;;2.00;;
76745;SDS011;65671;49.976;20.038;2023-12-29T10:23:20;2.72;;;1.95;;
76745;SDS011;65671;49.976;20.038;2023-12-29T10:25:52;3.33;;;1.98;;
76745;SDS011;65671;49.976;20.038;2023-12-29T10:28:18;4.15;;;2.33;;
76745;SDS011;65671;49.976;20.038;2023-12-29T10:30:44;4.47;;;2.42;;
76745;SDS011;65671;49.976;20.038;2023-12-29T10:33:09;5.18;;;2.60;;
76745;SDS011;65671;49.976;20.038;2023-12-29T10:35:38;4.20;;;2.40;;
76745;SDS011;65671;49.976;20.038;2023-12-29T10:38:10;4.05;;;2.30;;
76745;SDS011;65671;49.976;20.038;2023-12-29T10:40:36;2.83;;;1.92;;
76745;SDS011;65671;49.976;20.038;2023-12-29T10:43:02;4.80;;;2.20;;
76745;SDS011;65671;49.976;20.038;2023-12-29T10:45:32;4.00;;;2.83;;
76745;SDS011;65671;49.976;20.038;2023-12-29T10:47:59;3.58;;;2.10;;
76745;SDS011;65671;49.976;20.038;2023-12-29T10:50:25;3.28;;;2.05;;
76745;SDS011;65671;49.976;20.038;2023-12-29T10:53:10;4.32;;;2.20;;
76745;SDS011;65671;49.976;20.038;2023-12-29T10:55:37;4.60;;;3.13;;
76745;SDS011;65671;49.976;20.038;2023-12-29T10:58:02;3.83;;;2.40;;
76745;SDS011;65671;49.976;20.038;2023-12-29T11:00:31;4.70;;;2.25;;
76745;SDS011;65671;49.976;20.038;2023-12-29T11:02:58;5.20;;;2.03;;
76745;SDS011;65671;49.976;20.038;2023-12-29T11:05:25;5.00;;;2.90;;
76745;SDS011;65671;49.976;20.038;2023-12-29T11:07:52;3.75;;;2.38;;
76745;SDS011;65671;49.976;20.038;2023-12-29T11:10:20;3.13;;;2.00;;
76745;SDS011;65671;49.976;20.038;2023-12-29T11:12:47;4.88;;;2.88;;
76745;SDS011;65671;49.976;20.038;2023-12-29T11:15:14;4.43;;;2.97;;
76745;SDS011;65671;49.976;20.038;2023-12-29T11:17:41;5.55;;;3.10;;
76745;SDS011;65671;49.976;20.038;2023-12-29T11:20:15;5.10;;;3.00;;
76745;SDS011;65671;49.976;20.038;2023-12-29T11:22:42;7.35;;;3.95;;
76745;SDS011;65671;49.976;20.038;2023-12-29T11:25:08;4.78;;;2.72;;
76745;SDS011;65671;49.976;20.038;2023-12-29T11:27:34;4.68;;;2.53;;
76745;SDS011;65671;49.976;20.038;2023-12-29T11:30:01;4.63;;;2.60;;
76745;SDS011;65671;49.976;20.038;2023-12-29T11:32:39;3.00;;;2.15;;
76745;SDS011;65671;49.976;20.038;2023-12-29T11:40:44;3.17;;;2.17;;
76745;SDS011;65671;49.976;20.038;2023-12-29T11:43:34;5.95;;;2.50;;
76745;SDS011;65671;49.976;20.038;2023-12-29T11:46:00;4.03;;;2.40;;
76745;SDS011;65671;49.976;20.038;2023-12-29T11:51:27;3.80;;;2.75;;
76745;SDS011;65671;49.976;20.038;2023-12-29T11:54:22;4.80;;;2.17;;
76745;SDS011;65671;49.976;20.038;2023-12-29T11:56:49;3.45;;;2.30;;
76745;SDS011;65671;49.976;20.038;2023-12-29T11:59:16;7.25;;;2.97;;
76745;SDS011;65671;49.976;20.038;2023-12-29T12:01:45;8.23;;;4.82;;
76745;SDS011;65671;49.976;20.038;2023-12-29T12:07:04;12.38;;;5.45;;
76745;SDS011;65671;49.976;20.038;2023-12-29T12:09:32;7.85;;;3.88;;
76745;SDS011;65671;49.976;20.038;2023-12-29T12:12:00;11.93;;;5.28;;
76745;SDS011;65671;49.976;20.038;2023-12-29T12:14:47;23.88;;;11.20;;
76745;SDS011;65671;49.976;20.038;2023-12-29T12:17:27;9.38;;;4.90;;
76745;SDS011;65671;49.976;20.038;2023-12-29T12:19:57;13.00;;;6.40;;
76745;SDS011;65671;49.976;20.038;2023-12-29T12:22:29;6.00;;;3.80;;
76745;SDS011;65671;49.976;20.038;2023-12-29T12:24:59;7.50;;;3.97;;
76745;SDS011;65671;49.976;20.038;2023-12-29T12:27:26;19.95;;;7.65;;
76745;SDS011;65671;49.976;20.038;2023-12-29T12:29:56;9.38;;;4.63;;
76745;SDS011;65671;49.976;20.038;2023-12-29T12:32:27;17.08;;;7.70;;
76745;SDS011;65671;49.976;20.038;2023-12-29T12:34:54;17.55;;;7.53;;
76745;SDS011;65671;49.976;20.038;2023-12-29T12:37:23;5.18;;;2.92;;
76745;SDS011;65671;49.976;20.038;2023-12-29T12:39:51;7.35;;;3.92;;
76745;SDS011;65671;49.976;20.038;2023-12-29T12:42:18;14.75;;;6.82;;
76745;SDS011;65671;49.976;20.038;2023-12-29T12:45:27;6.65;;;3.63;;
76745;SDS011;65671;49.976;20.038;2023-12-29T12:47:38;8.13;;;4.63;;
76745;SDS011;65671;49.976;20.038;2023-12-29T12:50:12;6.50;;;3.60;;
76745;SDS011;65671;49.976;20.038;2023-12-29T12:52:38;7.45;;;3.58;;
76745;SDS011;65671;49.976;20.038;2023-12-29T12:55:05;5.13;;;3.03;;
76745;SDS011;65671;49.976;20.038;2023-12-29T12:57:31;7.03;;;4.10;;
76745;SDS011;65671;49.976;20.038;2023-12-29T12:59:59;6.10;;;3.20;;
76745;SDS011;65671;49.976;20.038;2023-12-29T13:02:24;7.70;;;4.65;;
76745;SDS011;65671;49.976;20.038;2023-12-29T13:04:50;7.50;;;3.63;;
76745;SDS011;65671;49.976;20.038;2023-12-29T13:07:17;5.28;;;3.70;;
76745;SDS011;65671;49.976;20.038;2023-12-29T13:09:46;3.60;;;2.60;;
76745;SDS011;65671;49.976;20.038;2023-12-29T13:12:14;6.50;;;3.28;;
76745;SDS011;65671;49.976;20.038;2023-12-29T13:14:41;7.75;;;3.10;;
76745;SDS011;65671;49.976;20.038;2023-12-29T13:17:13;7.38;;;3.60;;
76745;SDS011;65671;49.976;20.038;2023-12-29T13:19:40;4.60;;;2.55;;
76745;SDS011;65671;49.976;20.038;2023-12-29T13:22:07;6.30;;;3.28;;
76745;SDS011;65671;49.976;20.038;2023-12-29T13:24:35;6.15;;;3.67;;
76745;SDS011;65671;49.976;20.038;2023-12-29T13:27:07;7.15;;;3.65;;
76745;SDS011;65671;49.976;20.038;2023-12-29T13:29:35;6.47;;;3.97;;
76745;SDS011;65671;49.976;20.038;2023-12-29T13:32:04;8.35;;;4.07;;
76745;SDS011;65671;49.976;20.038;2023-12-29T13:34:47;8.82;;;4.88;;
76745;SDS011;65671;49.976;20.038;2023-12-29T13:40:33;9.45;;;4.53;;
76745;SDS011;65671;49.976;20.038;2023-12-29T13:43:07;24.55;;;8.05;;
76745;SDS011;65671;49.976;20.038;2023-12-29T13:45:34;12.38;;;5.43;;
76745;SDS011;65671;49.976;20.038;2023-12-29T13:48:01;6.78;;;3.65;;
76745;SDS011;65671;49.976;20.038;2023-12-29T13:50:28;8.90;;;4.10;;
76745;SDS011;65671;49.976;20.038;2023-12-29T13:52:54;13.18;;;5.60;;
76745;SDS011;65671;49.976;20.038;2023-12-29T13:55:21;9.00;;;4.68;;
76745;SDS011;65671;49.976;20.038;2023-12-29T13:57:47;9.57;;;4.97;;
76745;SDS011;65671;49.976;20.038;2023-12-29T14:00:14;9.55;;;5.13;;
76745;SDS011;65671;49.976;20.038;2023-12-29T14:02:41;8.55;;;4.05;;
76745;SDS011;65671;49.976;20.038;2023-12-29T14:05:18;12.60;;;5.45;;
76745;SDS011;65671;49.976;20.038;2023-12-29T14:08:09;8.52;;;5.00;;
76745;SDS011;65671;49.976;20.038;2023-12-29T14:10:36;9.43;;;5.68;;
76745;SDS011;65671;49.976;20.038;2023-12-29T14:13:08;11.55;;;5.32;;
76745;SDS011;65671;49.976;20.038;2023-12-29T14:15:39;7.22;;;4.68;;
76745;SDS011;65671;49.976;20.038;2023-12-29T14:20:46;13.00;;;6.60;;
76745;SDS011;65671;49.976;20.038;2023-12-29T14:23:12;22.10;;;10.00;;
76745;SDS011;65671;49.976;20.038;2023-12-29T14:25:42;14.43;;;6.78;;
76745;SDS011;65671;49.976;20.038;2023-12-29T14:28:18;9.63;;;5.50;;
76745;SDS011;65671;49.976;20.038;2023-12-29T14:30:49;8.88;;;4.65;;
76745;SDS011;65671;49.976;20.038;2023-12-29T14:33:15;9.23;;;4.53;;
76745;SDS011;65671;49.976;20.038;2023-12-29T14:35:43;8.52;;;4.70;;
76745;SDS011;65671;49.976;20.038;2023-12-29T14:38:09;7.40;;;4.78;;
76745;SDS011;65671;49.976;20.038;2023-12-29T14:40:37;10.02;;;5.10;;
76745;SDS011;65671;49.976;20.038;2023-12-29T14:43:03;14.40;;;9.13;;
76745;SDS011;65671;49.976;20.038;2023-12-29T14:45:29;15.40;;;8.65;;
76745;SDS011;65671;49.976;20.038;2023-12-29T14:47:55;14.15;;;7.80;;
76745;SDS011;65671;49.976;20.038;2023-12-29T14:50:21;14.45;;;7.30;;
76745;SDS011;65671;49.976;20.038;2023-12-29T14:52:47;16.77;;;8.40;;
76745;SDS011;65671;49.976;20.038;2023-12-29T14:55:12;14.45;;;6.82;;
76745;SDS011;65671;49.976;20.038;2023-12-29T14:57:37;11.23;;;5.38;;
76745;SDS011;65671;49.976;20.038;2023-12-29T15:00:03;11.80;;;5.25;;
76745;SDS011;65671;49.976;20.038;2023-12-29T15:02:29;9.60;;;5.20;;
76745;SDS011;65671;49.976;20.038;2023-12-29T15:04:55;8.75;;;5.65;;
76745;SDS011;65671;49.976;20.038;2023-12-29T15:07:20;12.82;;;5.50;;